sensor_id;sensor_type;location;lat;lon;timestamp;temperature;humidity
52743;DHT22;55583;53.012;6.556;2022-09-03T00:03:02;16.00;64.60
52743;DHT22;55583;53.012;6.556;2022-09-03T00:05:46;16.00;64.90
52743;DHT22;55583;53.012;6.556;2022-09-03T00:08:37;16.00;64.80
52743;DHT22;55583;53.012;6.556;2022-09-03T00:11:23;16.00;64.70
52743;DHT22;55583;53.012;6.556;2022-09-03T00:14:06;15.90;65.00
52743;DHT22;55583;53.012;6.556;2022-09-03T00:16:47;15.90;65.50
52743;DHT22;55583;53.012;6.556;2022-09-03T00:19:17;15.80;65.60
52743;DHT22;55583;53.012;6.556;2022-09-03T00:21:48;15.70;65.80
52743;DHT22;55583;53.012;6.556;2022-09-03T00:24:18;15.70;66.30
52743;DHT22;55583;53.012;6.556;2022-09-03T00:26:54;15.60;66.10
52743;DHT22;55583;53.012;6.556;2022-09-03T00:29:26;15.50;66.50
52743;DHT22;55583;53.012;6.556;2022-09-03T00:31:56;15.50;66.30
52743;DHT22;55583;53.012;6.556;2022-09-03T00:34:29;15.50;66.60
52743;DHT22;55583;53.012;6.556;2022-09-03T00:36:55;15.40;67.00
52743;DHT22;55583;53.012;6.556;2022-09-03T00:39:24;15.30;67.20
52743;DHT22;55583;53.012;6.556;2022-09-03T00:42:12;15.30;66.80
52743;DHT22;55583;53.012;6.556;2022-09-03T00:44:46;15.30;67.40
52743;DHT22;55583;53.012;6.556;2022-09-03T00:47:26;15.20;67.70
52743;DHT22;55583;53.012;6.556;2022-09-03T01:00:52;14.90;68.60
52743;DHT22;55583;53.012;6.556;2022-09-03T01:11:38;14.80;69.40
52743;DHT22;55583;53.012;6.556;2022-09-03T01:14:51;14.70;69.50
52743;DHT22;55583;53.012;6.556;2022-09-03T01:28:54;14.50;70.60
52743;DHT22;55583;53.012;6.556;2022-09-03T01:34:13;14.50;71.00
52743;DHT22;55583;53.012;6.556;2022-09-03T01:39:47;14.40;71.40
52743;DHT22;55583;53.012;6.556;2022-09-03T01:48:23;14.40;71.30
52743;DHT22;55583;53.012;6.556;2022-09-03T01:51:02;14.40;71.30
52743;DHT22;55583;53.012;6.556;2022-09-03T01:59:19;14.40;72.10
52743;DHT22;55583;53.012;6.556;2022-09-03T02:02:06;14.40;72.00
52743;DHT22;55583;53.012;6.556;2022-09-03T02:04:33;14.40;72.00
52743;DHT22;55583;53.012;6.556;2022-09-03T02:07:00;14.40;72.10
52743;DHT22;55583;53.012;6.556;2022-09-03T02:09:26;14.40;72.10
52743;DHT22;55583;53.012;6.556;2022-09-03T02:12:07;14.60;72.20
52743;DHT22;55583;53.012;6.556;2022-09-03T02:14:36;14.50;72.10
52743;DHT22;55583;53.012;6.556;2022-09-03T02:17:02;14.50;71.90
52743;DHT22;55583;53.012;6.556;2022-09-03T02:19:30;14.50;71.70
52743;DHT22;55583;53.012;6.556;2022-09-03T02:21:56;14.60;71.60
52743;DHT22;55583;53.012;6.556;2022-09-03T02:24:27;14.60;71.70
52743;DHT22;55583;53.012;6.556;2022-09-03T02:26:53;14.60;71.50
52743;DHT22;55583;53.012;6.556;2022-09-03T02:29:19;14.60;71.30
52743;DHT22;55583;53.012;6.556;2022-09-03T02:31:44;14.70;71.30
52743;DHT22;55583;53.012;6.556;2022-09-03T02:34:10;14.70;71.30
52743;DHT22;55583;53.012;6.556;2022-09-03T02:36:42;14.70;71.40
52743;DHT22;55583;53.012;6.556;2022-09-03T02:39:08;14.70;71.30
52743;DHT22;55583;53.012;6.556;2022-09-03T02:41:34;14.70;71.40
52743;DHT22;55583;53.012;6.556;2022-09-03T02:46:43;14.60;71.80
52743;DHT22;55583;53.012;6.556;2022-09-03T02:49:09;14.60;72.20
52743;DHT22;55583;53.012;6.556;2022-09-03T02:51:38;14.60;72.30
52743;DHT22;55583;53.012;6.556;2022-09-03T02:54:04;14.70;72.30
52743;DHT22;55583;53.012;6.556;2022-09-03T02:56:30;14.70;72.10
52743;DHT22;55583;53.012;6.556;2022-09-03T02:58:56;14.70;72.00
52743;DHT22;55583;53.012;6.556;2022-09-03T03:01:22;14.70;71.90
52743;DHT22;55583;53.012;6.556;2022-09-03T03:03:47;14.70;72.00
52743;DHT22;55583;53.012;6.556;2022-09-03T03:06:13;14.70;72.00
52743;DHT22;55583;53.012;6.556;2022-09-03T03:08:39;14.80;71.90
52743;DHT22;55583;53.012;6.556;2022-09-03T03:11:05;14.80;72.00
52743;DHT22;55583;53.012;6.556;2022-09-03T03:13:31;14.80;72.20
52743;DHT22;55583;53.012;6.556;2022-09-03T03:16:03;14.90;72.30
52743;DHT22;55583;53.012;6.556;2022-09-03T03:18:30;14.80;72.20
52743;DHT22;55583;53.012;6.556;2022-09-03T03:20:56;14.80;72.00
52743;DHT22;55583;53.012;6.556;2022-09-03T03:23:22;14.80;72.00
52743;DHT22;55583;53.012;6.556;2022-09-03T03:25:48;14.80;72.20
52743;DHT22;55583;53.012;6.556;2022-09-03T03:28:14;14.80;72.10
52743;DHT22;55583;53.012;6.556;2022-09-03T03:30:40;15.00;72.20
52743;DHT22;55583;53.012;6.556;2022-09-03T03:33:10;14.90;72.10
52743;DHT22;55583;53.012;6.556;2022-09-03T03:35:36;14.80;72.30
52743;DHT22;55583;53.012;6.556;2022-09-03T03:38:01;14.90;72.30
52743;DHT22;55583;53.012;6.556;2022-09-03T03:40:27;14.80;72.50
52743;DHT22;55583;53.012;6.556;2022-09-03T03:42:53;14.80;72.60
52743;DHT22;55583;53.012;6.556;2022-09-03T03:45:19;14.90;72.50
52743;DHT22;55583;53.012;6.556;2022-09-03T03:47:45;14.80;72.40
52743;DHT22;55583;53.012;6.556;2022-09-03T03:50:10;14.80;72.50
52743;DHT22;55583;53.012;6.556;2022-09-03T03:52:36;14.80;72.60
52743;DHT22;55583;53.012;6.556;2022-09-03T03:55:02;14.80;72.50
52743;DHT22;55583;53.012;6.556;2022-09-03T03:57:29;14.80;72.50
52743;DHT22;55583;53.012;6.556;2022-09-03T03:59:56;14.80;72.50
52743;DHT22;55583;53.012;6.556;2022-09-03T04:02:22;14.90;72.50
52743;DHT22;55583;53.012;6.556;2022-09-03T04:04:47;14.70;72.50
52743;DHT22;55583;53.012;6.556;2022-09-03T04:07:13;14.80;73.00
52743;DHT22;55583;53.012;6.556;2022-09-03T04:09:38;14.80;73.00
52743;DHT22;55583;53.012;6.556;2022-09-03T04:12:04;14.70;73.00
52743;DHT22;55583;53.012;6.556;2022-09-03T04:14:33;14.70;73.00
52743;DHT22;55583;53.012;6.556;2022-09-03T04:17:00;14.70;73.00
52743;DHT22;55583;53.012;6.556;2022-09-03T04:19:27;14.80;73.10
52743;DHT22;55583;53.012;6.556;2022-09-03T04:21:54;15.00;73.40
52743;DHT22;55583;53.012;6.556;2022-09-03T04:24:20;14.70;73.40
52743;DHT22;55583;53.012;6.556;2022-09-03T04:26:46;14.60;73.40
52743;DHT22;55583;53.012;6.556;2022-09-03T04:29:11;14.60;73.40
52743;DHT22;55583;53.012;6.556;2022-09-03T04:31:37;14.60;73.40
52743;DHT22;55583;53.012;6.556;2022-09-03T04:34:04;14.60;73.50
52743;DHT22;55583;53.012;6.556;2022-09-03T04:36:31;14.60;73.70
52743;DHT22;55583;53.012;6.556;2022-09-03T04:38:58;14.50;73.80
52743;DHT22;55583;53.012;6.556;2022-09-03T04:41:26;14.50;73.90
52743;DHT22;55583;53.012;6.556;2022-09-03T04:43:53;14.40;74.10
52743;DHT22;55583;53.012;6.556;2022-09-03T04:46:20;14.40;74.30
52743;DHT22;55583;53.012;6.556;2022-09-03T04:48:48;14.50;74.60
52743;DHT22;55583;53.012;6.556;2022-09-03T04:51:22;14.40;74.70
52743;DHT22;55583;53.012;6.556;2022-09-03T04:53:59;14.40;74.90
52743;DHT22;55583;53.012;6.556;2022-09-03T04:56:30;14.40;75.20
52743;DHT22;55583;53.012;6.556;2022-09-03T04:59:02;14.30;75.40
52743;DHT22;55583;53.012;6.556;2022-09-03T05:01:30;14.30;75.70
52743;DHT22;55583;53.012;6.556;2022-09-03T05:03:56;14.30;75.80
52743;DHT22;55583;53.012;6.556;2022-09-03T05:06:22;14.80;76.30
52743;DHT22;55583;53.012;6.556;2022-09-03T05:08:50;14.00;76.10
52743;DHT22;55583;53.012;6.556;2022-09-03T05:11:17;14.40;76.60
52743;DHT22;55583;53.012;6.556;2022-09-03T05:13:47;14.30;76.70
52743;DHT22;55583;53.012;6.556;2022-09-03T05:16:13;14.20;77.00
52743;DHT22;55583;53.012;6.556;2022-09-03T05:18:39;14.20;77.00
52743;DHT22;55583;53.012;6.556;2022-09-03T05:21:17;14.20;77.40
52743;DHT22;55583;53.012;6.556;2022-09-03T05:23:47;14.20;78.20
52743;DHT22;55583;53.012;6.556;2022-09-03T05:26:24;14.20;77.90
52743;DHT22;55583;53.012;6.556;2022-09-03T05:29:00;14.20;78.60
52743;DHT22;55583;53.012;6.556;2022-09-03T05:31:28;14.10;79.00
52743;DHT22;55583;53.012;6.556;2022-09-03T05:33:58;14.40;78.90
52743;DHT22;55583;53.012;6.556;2022-09-03T05:36:27;14.10;79.00
52743;DHT22;55583;53.012;6.556;2022-09-03T05:38:53;14.10;79.60
52743;DHT22;55583;53.012;6.556;2022-09-03T05:41:19;14.20;79.70
52743;DHT22;55583;53.012;6.556;2022-09-03T05:43:49;14.20;80.30
52743;DHT22;55583;53.012;6.556;2022-09-03T05:46:30;14.20;79.90
52743;DHT22;55583;53.012;6.556;2022-09-03T05:49:02;14.30;80.30
52743;DHT22;55583;53.012;6.556;2022-09-03T05:51:29;14.30;80.60
52743;DHT22;55583;53.012;6.556;2022-09-03T05:53:55;14.30;80.80
52743;DHT22;55583;53.012;6.556;2022-09-03T05:56:23;14.30;80.90
52743;DHT22;55583;53.012;6.556;2022-09-03T05:58:51;14.30;81.00
52743;DHT22;55583;53.012;6.556;2022-09-03T06:01:18;14.40;81.30
52743;DHT22;55583;53.012;6.556;2022-09-03T06:03:46;14.30;81.70
52743;DHT22;55583;53.012;6.556;2022-09-03T06:06:12;14.40;82.00
52743;DHT22;55583;53.012;6.556;2022-09-03T06:08:38;14.60;82.40
52743;DHT22;55583;53.012;6.556;2022-09-03T06:11:04;14.50;82.70
52743;DHT22;55583;53.012;6.556;2022-09-03T06:13:31;14.30;83.10
52743;DHT22;55583;53.012;6.556;2022-09-03T06:16:01;14.30;83.10
52743;DHT22;55583;53.012;6.556;2022-09-03T06:18:27;14.40;83.30
52743;DHT22;55583;53.012;6.556;2022-09-03T06:20:57;14.40;83.50
52743;DHT22;55583;53.012;6.556;2022-09-03T06:23:23;14.50;83.30
52743;DHT22;55583;53.012;6.556;2022-09-03T06:26:05;14.50;83.30
52743;DHT22;55583;53.012;6.556;2022-09-03T06:28:33;14.60;83.80
52743;DHT22;55583;53.012;6.556;2022-09-03T06:31:00;14.70;83.50
52743;DHT22;55583;53.012;6.556;2022-09-03T06:33:30;14.70;83.60
52743;DHT22;55583;53.012;6.556;2022-09-03T06:36:00;14.70;83.50
52743;DHT22;55583;53.012;6.556;2022-09-03T06:38:28;14.70;83.60
52743;DHT22;55583;53.012;6.556;2022-09-03T06:40:55;14.70;83.50
52743;DHT22;55583;53.012;6.556;2022-09-03T06:43:22;14.70;83.70
52743;DHT22;55583;53.012;6.556;2022-09-03T06:46:06;14.80;84.10
52743;DHT22;55583;53.012;6.556;2022-09-03T06:48:33;15.00;84.10
52743;DHT22;55583;53.012;6.556;2022-09-03T06:51:01;14.80;84.00
52743;DHT22;55583;53.012;6.556;2022-09-03T06:53:32;14.90;84.10
52743;DHT22;55583;53.012;6.556;2022-09-03T06:56:04;15.10;84.00
52743;DHT22;55583;53.012;6.556;2022-09-03T06:58:35;15.00;83.90
52743;DHT22;55583;53.012;6.556;2022-09-03T07:01:06;15.00;84.10
52743;DHT22;55583;53.012;6.556;2022-09-03T07:03:33;15.10;84.30
52743;DHT22;55583;53.012;6.556;2022-09-03T07:06:00;15.10;83.60
52743;DHT22;55583;53.012;6.556;2022-09-03T07:08:26;15.20;83.40
52743;DHT22;55583;53.012;6.556;2022-09-03T07:10:52;15.20;82.90
52743;DHT22;55583;53.012;6.556;2022-09-03T07:13:17;15.30;82.80
52743;DHT22;55583;53.012;6.556;2022-09-03T07:15:44;15.30;83.30
52743;DHT22;55583;53.012;6.556;2022-09-03T07:18:10;15.30;83.20
52743;DHT22;55583;53.012;6.556;2022-09-03T07:20:35;15.40;82.90
52743;DHT22;55583;53.012;6.556;2022-09-03T07:23:01;15.50;82.80
52743;DHT22;55583;53.012;6.556;2022-09-03T07:25:26;15.50;82.50
52743;DHT22;55583;53.012;6.556;2022-09-03T07:27:52;15.60;82.20
52743;DHT22;55583;53.012;6.556;2022-09-03T07:30:18;15.60;82.40
52743;DHT22;55583;53.012;6.556;2022-09-03T07:32:47;15.60;82.00
52743;DHT22;55583;53.012;6.556;2022-09-03T07:35:16;15.70;82.10
52743;DHT22;55583;53.012;6.556;2022-09-03T07:37:43;15.80;81.30
52743;DHT22;55583;53.012;6.556;2022-09-03T07:40:09;15.90;80.70
52743;DHT22;55583;53.012;6.556;2022-09-03T07:42:35;16.00;80.70
52743;DHT22;55583;53.012;6.556;2022-09-03T07:45:05;16.20;80.00
52743;DHT22;55583;53.012;6.556;2022-09-03T07:47:35;16.20;79.60
52743;DHT22;55583;53.012;6.556;2022-09-03T07:50:10;16.30;79.50
52743;DHT22;55583;53.012;6.556;2022-09-03T07:52:35;16.30;79.50
52743;DHT22;55583;53.012;6.556;2022-09-03T07:55:01;16.40;79.00
52743;DHT22;55583;53.012;6.556;2022-09-03T07:57:29;16.60;78.90
52743;DHT22;55583;53.012;6.556;2022-09-03T07:59:54;16.70;78.30
52743;DHT22;55583;53.012;6.556;2022-09-03T08:02:20;16.70;77.70
52743;DHT22;55583;53.012;6.556;2022-09-03T08:04:46;16.80;77.20
52743;DHT22;55583;53.012;6.556;2022-09-03T08:07:11;17.10;77.30
52743;DHT22;55583;53.012;6.556;2022-09-03T08:09:37;16.90;77.50
52743;DHT22;55583;53.012;6.556;2022-09-03T08:12:03;17.00;77.50
52743;DHT22;55583;53.012;6.556;2022-09-03T08:14:28;17.10;77.10
52743;DHT22;55583;53.012;6.556;2022-09-03T08:16:56;17.20;76.90
52743;DHT22;55583;53.012;6.556;2022-09-03T08:19:24;17.40;76.40
52743;DHT22;55583;53.012;6.556;2022-09-03T08:21:50;17.50;75.70
52743;DHT22;55583;53.012;6.556;2022-09-03T08:24:16;17.60;74.90
52743;DHT22;55583;53.012;6.556;2022-09-03T08:26:43;17.80;74.50
52743;DHT22;55583;53.012;6.556;2022-09-03T08:29:09;17.90;73.80
52743;DHT22;55583;53.012;6.556;2022-09-03T08:31:35;17.90;73.60
52743;DHT22;55583;53.012;6.556;2022-09-03T08:34:02;18.00;73.10
52743;DHT22;55583;53.012;6.556;2022-09-03T08:36:34;18.10;73.10
52743;DHT22;55583;53.012;6.556;2022-09-03T08:39:02;18.20;72.80
52743;DHT22;55583;53.012;6.556;2022-09-03T08:44:19;18.30;72.60
52743;DHT22;55583;53.012;6.556;2022-09-03T08:52:42;18.70;71.00
52743;DHT22;55583;53.012;6.556;2022-09-03T08:57:50;18.90;70.80
52743;DHT22;55583;53.012;6.556;2022-09-03T09:00:17;19.00;69.60
52743;DHT22;55583;53.012;6.556;2022-09-03T09:05:23;19.20;68.50
52743;DHT22;55583;53.012;6.556;2022-09-03T09:08:02;19.30;68.10
52743;DHT22;55583;53.012;6.556;2022-09-03T09:11:15;19.30;67.40
52743;DHT22;55583;53.012;6.556;2022-09-03T09:13:41;19.50;67.80
52743;DHT22;55583;53.012;6.556;2022-09-03T09:16:18;19.60;68.00
52743;DHT22;55583;53.012;6.556;2022-09-03T09:21:40;19.90;66.30
52743;DHT22;55583;53.012;6.556;2022-09-03T09:24:23;19.90;66.00
52743;DHT22;55583;53.012;6.556;2022-09-03T09:26:59;20.00;66.50
52743;DHT22;55583;53.012;6.556;2022-09-03T09:29:31;20.10;65.80
52743;DHT22;55583;53.012;6.556;2022-09-03T09:31:58;20.20;65.10
52743;DHT22;55583;53.012;6.556;2022-09-03T09:34:24;20.50;65.50
52743;DHT22;55583;53.012;6.556;2022-09-03T09:36:56;20.50;65.60
52743;DHT22;55583;53.012;6.556;2022-09-03T09:39:22;20.80;64.40
52743;DHT22;55583;53.012;6.556;2022-09-03T09:42:08;21.80;63.60
52743;DHT22;55583;53.012;6.556;2022-09-03T09:44:40;24.00;58.20
52743;DHT22;55583;53.012;6.556;2022-09-03T09:47:14;26.30;54.20
52743;DHT22;55583;53.012;6.556;2022-09-03T09:49:56;28.00;50.70
52743;DHT22;55583;53.012;6.556;2022-09-03T09:52:24;29.50;47.30
52743;DHT22;55583;53.012;6.556;2022-09-03T09:54:53;30.30;45.60
52743;DHT22;55583;53.012;6.556;2022-09-03T09:57:29;31.10;43.80
52743;DHT22;55583;53.012;6.556;2022-09-03T10:00:04;32.00;43.00
52743;DHT22;55583;53.012;6.556;2022-09-03T10:02:34;33.00;41.80
52743;DHT22;55583;53.012;6.556;2022-09-03T10:05:20;33.70;40.70
52743;DHT22;55583;53.012;6.556;2022-09-03T10:08:01;34.50;39.30
52743;DHT22;55583;53.012;6.556;2022-09-03T10:10:30;35.30;37.20
52743;DHT22;55583;53.012;6.556;2022-09-03T10:13:07;35.60;38.50
52743;DHT22;55583;53.012;6.556;2022-09-03T10:18:15;36.40;36.70
52743;DHT22;55583;53.012;6.556;2022-09-03T10:20:48;36.80;36.30
52743;DHT22;55583;53.012;6.556;2022-09-03T10:23:22;37.40;36.10
52743;DHT22;55583;53.012;6.556;2022-09-03T10:28:23;38.00;35.20
52743;DHT22;55583;53.012;6.556;2022-09-03T10:33:23;38.30;35.60
52743;DHT22;55583;53.012;6.556;2022-09-03T10:36:04;38.80;34.10
52743;DHT22;55583;53.012;6.556;2022-09-03T10:38:34;38.80;33.90
52743;DHT22;55583;53.012;6.556;2022-09-03T10:41:38;39.20;33.70
52743;DHT22;55583;53.012;6.556;2022-09-03T10:50:07;40.50;33.10
52743;DHT22;55583;53.012;6.556;2022-09-03T10:58:48;40.50;32.00
52743;DHT22;55583;53.012;6.556;2022-09-03T11:04:28;40.90;31.80
52743;DHT22;55583;53.012;6.556;2022-09-03T11:07:04;41.40;31.60
52743;DHT22;55583;53.012;6.556;2022-09-03T11:09:51;41.60;31.50
52743;DHT22;55583;53.012;6.556;2022-09-03T11:12:41;41.50;30.90
52743;DHT22;55583;53.012;6.556;2022-09-03T11:20:26;40.80;31.30
52743;DHT22;55583;53.012;6.556;2022-09-03T11:22:58;41.00;31.40
52743;DHT22;55583;53.012;6.556;2022-09-03T11:25:31;41.10;30.80
52743;DHT22;55583;53.012;6.556;2022-09-03T11:33:28;41.60;30.90
52743;DHT22;55583;53.012;6.556;2022-09-03T11:35:59;41.80;30.70
52743;DHT22;55583;53.012;6.556;2022-09-03T11:38:27;42.00;30.60
52743;DHT22;55583;53.012;6.556;2022-09-03T11:43:46;41.80;30.10
52743;DHT22;55583;53.012;6.556;2022-09-03T11:48:55;41.50;30.00
52743;DHT22;55583;53.012;6.556;2022-09-03T11:51:32;41.40;30.30
52743;DHT22;55583;53.012;6.556;2022-09-03T11:54:24;41.30;30.00
52743;DHT22;55583;53.012;6.556;2022-09-03T11:57:02;41.20;30.10
52743;DHT22;55583;53.012;6.556;2022-09-03T11:59:30;41.20;30.00
52743;DHT22;55583;53.012;6.556;2022-09-03T12:02:01;41.10;30.00
52743;DHT22;55583;53.012;6.556;2022-09-03T12:04:50;41.20;30.00
52743;DHT22;55583;53.012;6.556;2022-09-03T12:10:14;41.20;30.00
52743;DHT22;55583;53.012;6.556;2022-09-03T12:15:49;40.70;30.00
52743;DHT22;55583;53.012;6.556;2022-09-03T12:18:29;40.80;30.50
52743;DHT22;55583;53.012;6.556;2022-09-03T12:23:30;41.40;30.10
52743;DHT22;55583;53.012;6.556;2022-09-03T12:26:08;41.60;29.90
52743;DHT22;55583;53.012;6.556;2022-09-03T12:28:40;41.20;30.20
52743;DHT22;55583;53.012;6.556;2022-09-03T12:31:18;41.10;30.70
52743;DHT22;55583;53.012;6.556;2022-09-03T12:36:20;41.50;30.00
52743;DHT22;55583;53.012;6.556;2022-09-03T12:38:47;41.50;30.30
52743;DHT22;55583;53.012;6.556;2022-09-03T12:43:55;41.10;30.00
52743;DHT22;55583;53.012;6.556;2022-09-03T12:46:23;41.00;30.60
52743;DHT22;55583;53.012;6.556;2022-09-03T12:48:57;40.90;30.50
52743;DHT22;55583;53.012;6.556;2022-09-03T12:51:39;40.70;30.40
52743;DHT22;55583;53.012;6.556;2022-09-03T12:54:07;40.30;30.50
52743;DHT22;55583;53.012;6.556;2022-09-03T12:56:39;40.10;30.80
52743;DHT22;55583;53.012;6.556;2022-09-03T12:59:10;39.60;31.00
52743;DHT22;55583;53.012;6.556;2022-09-03T13:01:46;39.10;31.10
52743;DHT22;55583;53.012;6.556;2022-09-03T13:04:18;39.00;31.10
52743;DHT22;55583;53.012;6.556;2022-09-03T13:06:52;39.10;31.00
52743;DHT22;55583;53.012;6.556;2022-09-03T13:09:23;39.20;31.20
52743;DHT22;55583;53.012;6.556;2022-09-03T13:11:51;39.00;31.20
52743;DHT22;55583;53.012;6.556;2022-09-03T13:14:19;39.00;31.40
52743;DHT22;55583;53.012;6.556;2022-09-03T13:16:59;39.00;31.20
52743;DHT22;55583;53.012;6.556;2022-09-03T13:22:23;38.70;31.70
52743;DHT22;55583;53.012;6.556;2022-09-03T13:25:23;38.50;31.70
52743;DHT22;55583;53.012;6.556;2022-09-03T13:30:56;38.20;31.70
52743;DHT22;55583;53.012;6.556;2022-09-03T13:36:09;38.20;32.00
52743;DHT22;55583;53.012;6.556;2022-09-03T13:39:02;38.10;32.20
52743;DHT22;55583;53.012;6.556;2022-09-03T13:41:35;38.10;31.50
52743;DHT22;55583;53.012;6.556;2022-09-03T13:51:59;37.70;31.80
52743;DHT22;55583;53.012;6.556;2022-09-03T13:54:33;37.40;32.00
52743;DHT22;55583;53.012;6.556;2022-09-03T13:57:36;37.10;32.00
52743;DHT22;55583;53.012;6.556;2022-09-03T14:00:09;36.60;32.50
52743;DHT22;55583;53.012;6.556;2022-09-03T14:05:40;36.40;32.90
52743;DHT22;55583;53.012;6.556;2022-09-03T14:08:38;36.60;32.80
52743;DHT22;55583;53.012;6.556;2022-09-03T14:14:05;36.90;32.40
52743;DHT22;55583;53.012;6.556;2022-09-03T14:19:16;36.20;33.20
52743;DHT22;55583;53.012;6.556;2022-09-03T14:21:50;36.20;33.30
52743;DHT22;55583;53.012;6.556;2022-09-03T14:24:46;36.30;33.30
52743;DHT22;55583;53.012;6.556;2022-09-03T14:27:12;36.50;32.60
52743;DHT22;55583;53.012;6.556;2022-09-03T14:30:02;36.50;32.60
52743;DHT22;55583;53.012;6.556;2022-09-03T14:40:45;36.00;32.60
52743;DHT22;55583;53.012;6.556;2022-09-03T14:43:23;35.90;33.20
52743;DHT22;55583;53.012;6.556;2022-09-03T14:48:53;35.90;33.50
52743;DHT22;55583;53.012;6.556;2022-09-03T14:57:34;36.20;33.30
52743;DHT22;55583;53.012;6.556;2022-09-03T15:00:13;36.30;32.80
52743;DHT22;55583;53.012;6.556;2022-09-03T15:02:55;36.20;33.00
52743;DHT22;55583;53.012;6.556;2022-09-03T15:10:59;35.80;33.20
52743;DHT22;55583;53.012;6.556;2022-09-03T15:13:30;35.70;33.50
52743;DHT22;55583;53.012;6.556;2022-09-03T15:21:55;35.40;33.70
52743;DHT22;55583;53.012;6.556;2022-09-03T15:24:49;34.90;34.10
52743;DHT22;55583;53.012;6.556;2022-09-03T15:30:10;34.20;34.80
52743;DHT22;55583;53.012;6.556;2022-09-03T15:33:05;33.80;35.50
52743;DHT22;55583;53.012;6.556;2022-09-03T15:39:04;33.50;36.10
52743;DHT22;55583;53.012;6.556;2022-09-03T15:44:19;33.70;36.40
52743;DHT22;55583;53.012;6.556;2022-09-03T15:47:00;33.30;36.10
52743;DHT22;55583;53.012;6.556;2022-09-03T15:50:24;33.20;36.10
52743;DHT22;55583;53.012;6.556;2022-09-03T15:52:36;33.00;37.00
52743;DHT22;55583;53.012;6.556;2022-09-03T15:55:13;33.00;36.70
52743;DHT22;55583;53.012;6.556;2022-09-03T16:03:12;33.20;36.50
52743;DHT22;55583;53.012;6.556;2022-09-03T16:05:47;33.30;36.80
52743;DHT22;55583;53.012;6.556;2022-09-03T16:08:22;33.30;36.70
52743;DHT22;55583;53.012;6.556;2022-09-03T16:17:42;32.20;36.80
52743;DHT22;55583;53.012;6.556;2022-09-03T16:22:28;30.80;38.00
52743;DHT22;55583;53.012;6.556;2022-09-03T16:28:07;29.90;38.90
52743;DHT22;55583;53.012;6.556;2022-09-03T16:33:47;29.40;39.80
52743;DHT22;55583;53.012;6.556;2022-09-03T16:53:09;28.50;41.30
52743;DHT22;55583;53.012;6.556;2022-09-03T16:55:46;28.40;41.30
52743;DHT22;55583;53.012;6.556;2022-09-03T16:58:26;28.30;42.00
52743;DHT22;55583;53.012;6.556;2022-09-03T17:01:17;28.10;43.10
52743;DHT22;55583;53.012;6.556;2022-09-03T17:04:21;28.00;42.90
52743;DHT22;55583;53.012;6.556;2022-09-03T17:15:50;27.50;43.60
52743;DHT22;55583;53.012;6.556;2022-09-03T17:18:28;27.40;43.20
52743;DHT22;55583;53.012;6.556;2022-09-03T17:29:39;26.80;43.90
52743;DHT22;55583;53.012;6.556;2022-09-03T17:32:21;26.80;44.80
52743;DHT22;55583;53.012;6.556;2022-09-03T17:43:26;26.10;45.20
52743;DHT22;55583;53.012;6.556;2022-09-03T17:46:13;25.90;45.40
52743;DHT22;55583;53.012;6.556;2022-09-03T17:48:53;25.70;46.00
52743;DHT22;55583;53.012;6.556;2022-09-03T17:54:39;25.30;46.60
52743;DHT22;55583;53.012;6.556;2022-09-03T17:57:22;25.20;46.80
52743;DHT22;55583;53.012;6.556;2022-09-03T18:00:05;25.10;47.50
52743;DHT22;55583;53.012;6.556;2022-09-03T18:02:39;25.00;47.40
52743;DHT22;55583;53.012;6.556;2022-09-03T18:10:42;24.60;48.00
52743;DHT22;55583;53.012;6.556;2022-09-03T18:16:27;24.40;48.80
52743;DHT22;55583;53.012;6.556;2022-09-03T18:19:48;24.30;49.00
52743;DHT22;55583;53.012;6.556;2022-09-03T18:22:00;24.20;49.20
52743;DHT22;55583;53.012;6.556;2022-09-03T18:24:54;24.10;49.30
52743;DHT22;55583;53.012;6.556;2022-09-03T18:27:42;23.90;49.50
52743;DHT22;55583;53.012;6.556;2022-09-03T18:30:27;23.80;49.60
52743;DHT22;55583;53.012;6.556;2022-09-03T18:33:11;23.70;49.60
52743;DHT22;55583;53.012;6.556;2022-09-03T18:35:57;23.60;49.80
52743;DHT22;55583;53.012;6.556;2022-09-03T18:38:41;23.50;50.10
52743;DHT22;55583;53.012;6.556;2022-09-03T18:41:51;23.40;50.40
52743;DHT22;55583;53.012;6.556;2022-09-03T18:51:12;23.00;51.40
52743;DHT22;55583;53.012;6.556;2022-09-03T18:54:18;22.90;51.50
52743;DHT22;55583;53.012;6.556;2022-09-03T18:57:31;22.80;51.50
52743;DHT22;55583;53.012;6.556;2022-09-03T19:00:19;22.70;51.90
52743;DHT22;55583;53.012;6.556;2022-09-03T19:06:25;22.50;52.40
52743;DHT22;55583;53.012;6.556;2022-09-03T19:18:19;22.10;53.10
52743;DHT22;55583;53.012;6.556;2022-09-03T19:21:28;22.00;53.50
52743;DHT22;55583;53.012;6.556;2022-09-03T19:24:15;21.90;53.90
52743;DHT22;55583;53.012;6.556;2022-09-03T19:33:14;21.60;54.50
52743;DHT22;55583;53.012;6.556;2022-09-03T19:42:14;21.30;55.30
52743;DHT22;55583;53.012;6.556;2022-09-03T19:45:19;21.30;55.50
52743;DHT22;55583;53.012;6.556;2022-09-03T19:53:51;21.10;56.30
52743;DHT22;55583;53.012;6.556;2022-09-03T19:56:36;21.00;56.00
52743;DHT22;55583;53.012;6.556;2022-09-03T19:59:24;20.90;56.20
52743;DHT22;55583;53.012;6.556;2022-09-03T20:02:11;20.90;56.50
52743;DHT22;55583;53.012;6.556;2022-09-03T20:04:58;20.80;56.50
52743;DHT22;55583;53.012;6.556;2022-09-03T20:07:44;20.70;56.60
52743;DHT22;55583;53.012;6.556;2022-09-03T20:10:31;20.70;56.60
52743;DHT22;55583;53.012;6.556;2022-09-03T20:13:08;20.60;56.70
52743;DHT22;55583;53.012;6.556;2022-09-03T20:15:43;20.60;56.90
52743;DHT22;55583;53.012;6.556;2022-09-03T20:23:46;20.40;57.50
52743;DHT22;55583;53.012;6.556;2022-09-03T20:26:31;20.30;57.40
52743;DHT22;55583;53.012;6.556;2022-09-03T20:29:09;20.30;57.60
52743;DHT22;55583;53.012;6.556;2022-09-03T20:31:56;20.20;57.50
52743;DHT22;55583;53.012;6.556;2022-09-03T20:37:22;20.00;57.90
52743;DHT22;55583;53.012;6.556;2022-09-03T20:39:58;19.90;57.90
52743;DHT22;55583;53.012;6.556;2022-09-03T20:42:35;19.90;57.80
52743;DHT22;55583;53.012;6.556;2022-09-03T20:45:34;19.80;58.00
52743;DHT22;55583;53.012;6.556;2022-09-03T20:48:16;19.80;58.40
52743;DHT22;55583;53.012;6.556;2022-09-03T20:53:49;19.60;58.20
52743;DHT22;55583;53.012;6.556;2022-09-03T20:56:38;19.60;58.60
52743;DHT22;55583;53.012;6.556;2022-09-03T20:59:14;19.50;58.50
52743;DHT22;55583;53.012;6.556;2022-09-03T21:02:00;19.40;58.60
52743;DHT22;55583;53.012;6.556;2022-09-03T21:15:37;19.10;59.70
52743;DHT22;55583;53.012;6.556;2022-09-03T21:18:15;19.00;59.30
52743;DHT22;55583;53.012;6.556;2022-09-03T21:21:00;19.10;59.70
52743;DHT22;55583;53.012;6.556;2022-09-03T21:23:32;18.90;59.60
52743;DHT22;55583;53.012;6.556;2022-09-03T21:26:09;18.90;59.50
52743;DHT22;55583;53.012;6.556;2022-09-03T21:28:40;18.80;60.00
52743;DHT22;55583;53.012;6.556;2022-09-03T21:31:18;18.70;59.30